Time;durP1;ratioP1;P1;durP2;ratioP2;P2;SDS_P1;SDS_P2;PMS_P1;PMS_P2;Temp;Humidity;BMP_temperature;BMP_pressure;BME280_temperature;BME280_humidity;BME280_pressure;Samples;Min_cycle;Max_cycle;Signal;HPM_P1;HPM_P2
2023/02/26 00:02:01;;;;;;;4.60;2.67;;;;;;;-0.16;95.63;151329.91;5062555;28;20450;-78
2023/02/26 00:04:27;;;;;;;2.67;2.43;;;;;;;-0.17;94.72;151328.63;5053051;28;20529;-78
2023/02/26 00:06:54;;;;;;;2.77;2.10;;;;;;;-0.25;94.99;151306.81;5048134;28;20442;-78
2023/02/26 00:09:21;;;;;;;3.00;2.30;;;;;;;-0.22;94.71;151314.50;5058826;28;20831;-78
2023/02/26 00:11:48;;;;;;;2.97;2.30;;;;;;;-0.28;97.14;151300.41;5044969;28;20457;-78
2023/02/26 00:14:16;;;;;;;2.47;2.10;;;;;;;-0.32;96.80;151290.09;5053776;28;20517;-78
2023/02/26 00:16:44;;;;;;;4.57;2.60;;;;;;;-0.26;96.76;151305.50;5048483;28;20439;-78
2023/02/26 00:19:13;;;;;;;3.40;2.40;;;;;;;-0.33;94.79;151287.56;5038513;28;20455;-77
2023/02/26 00:21:40;;;;;;;3.13;2.33;;;;;;;-0.28;94.63;151299.09;5043235;28;20450;-77
2023/02/26 00:24:07;;;;;;;2.60;2.10;;;;;;;-0.37;94.06;151277.28;5059533;28;20555;-78
2023/02/26 00:26:34;;;;;;;3.30;2.70;;;;;;;-0.38;96.98;151274.75;5034843;28;20452;-77
2023/02/26 00:29:01;;;;;;;3.10;2.10;;;;;;;-0.48;96.62;151247.81;5051343;28;20515;-78
2023/02/26 00:31:29;;;;;;;4.97;3.20;;;;;;;-0.42;97.22;151264.47;5043916;28;20448;-77
2023/02/26 00:33:57;;;;;;;4.90;2.90;;;;;;;-0.51;95.77;151241.41;5046360;28;20456;-78
2023/02/26 00:36:37;;;;;;;4.33;2.10;;;;;;;-0.49;96.70;151246.53;5014357;28;20473;-78
2023/02/26 00:39:09;;;;;;;8.03;2.60;;;;;;;-0.55;96.44;151231.13;5042614;28;20467;-78
2023/02/26 00:41:37;;;;;;;3.20;2.90;;;;;;;-0.54;95.94;151233.69;5022653;28;20536;-78
2023/02/26 00:44:04;;;;;;;4.13;2.70;;;;;;;-0.47;93.86;151251.63;5047654;28;20475;-77
2023/02/26 00:46:38;;;;;;;4.73;3.00;;;;;;;-0.53;93.76;151235.00;5044469;28;20479;-77
2023/02/26 00:49:11;;;;;;;3.50;2.70;;;;;;;-0.62;94.49;151213.19;5026818;28;20505;-78
2023/02/26 00:51:45;;;;;;;3.40;2.33;;;;;;;-0.63;94.76;151210.59;5019757;28;20448;-77
2023/02/26 00:54:17;;;;;;;3.20;2.63;;;;;;;-0.65;94.83;151206.75;5023849;28;20443;-78
2023/02/26 00:56:44;;;;;;;4.53;2.90;;;;;;;-0.67;93.99;151201.66;5042328;28;20553;-77
2023/02/26 00:59:11;;;;;;;3.57;2.70;;;;;;;-0.57;93.01;151224.69;5045608;28;20458;-78
2023/02/26 01:01:38;;;;;;;3.43;2.50;;;;;;;-0.64;93.82;151208.06;5032477;28;20444;-77
2023/02/26 01:04:06;;;;;;;3.43;2.53;;;;;;;-0.66;94.55;151202.88;5040015;28;20495;-77
2023/02/26 01:06:34;;;;;;;3.63;2.57;;;;;;;-0.71;96.00;151190.06;5054095;28;20537;-78
2023/02/26 01:09:10;;;;;;;3.80;2.63;;;;;;;-0.75;95.60;151179.84;5058899;28;20555;-77
2023/02/26 01:11:37;;;;;;;4.80;3.67;;;;;;;-0.76;95.10;151178.53;5044719;28;20550;-77
2023/02/26 01:14:05;;;;;;;5.17;2.90;;;;;;;-0.78;99.05;151172.13;5065776;28;20501;-78
2023/02/26 01:16:38;;;;;;;3.83;3.20;;;;;;;-0.83;94.94;151159.31;5040908;28;20568;-78
2023/02/26 01:19:12;;;;;;;5.13;2.70;;;;;;;-0.79;96.12;151170.84;5063264;28;20456;-77
2023/02/26 01:21:43;;;;;;;4.27;3.07;;;;;;;-0.78;94.60;151173.44;5051365;28;20451;-78
2023/02/26 01:24:13;;;;;;;4.83;3.00;;;;;;;-0.78;97.53;151173.44;5034203;28;20455;-77
2023/02/26 01:26:41;;;;;;;4.20;3.17;;;;;;;-0.77;95.11;151175.97;5051302;28;20448;-78
2023/02/26 01:29:08;;;;;;;3.53;2.93;;;;;;;-0.80;95.23;151168.31;5041539;28;20553;-78
2023/02/26 01:31:39;;;;;;;4.50;3.30;;;;;;;-0.87;95.85;151149.03;5070466;28;20452;-78
2023/02/26 01:34:10;;;;;;;3.60;2.70;;;;;;;-0.88;94.80;151147.78;5049506;28;20501;-78
2023/02/26 01:36:41;;;;;;;2.93;2.37;;;;;;;-0.91;94.03;151140.09;5053265;28;20482;-78
2023/02/26 01:39:14;;;;;;;3.37;2.60;;;;;;;-1.00;95.72;151115.69;5031320;28;20458;-77
2023/02/26 01:41:43;;;;;;;4.33;2.80;;;;;;;-1.03;94.85;151109.28;5018004;28;20467;-78
2023/02/26 01:44:15;;;;;;;3.57;2.17;;;;;;;-1.08;95.80;151096.47;5021902;28;20488;-77
2023/02/26 01:47:03;;;;;;;4.10;2.97;;;;;;;-1.17;94.55;151072.13;5055020;28;20447;-78
2023/02/26 01:49:30;;;;;;;4.53;3.20;;;;;;;-1.16;94.66;151074.66;5040078;28;20457;-77
2023/02/26 01:51:58;;;;;;;4.90;3.13;;;;;;;-1.16;94.17;151074.66;5062892;28;20461;-77
2023/02/26 01:54:30;;;;;;;5.60;2.93;;;;;;;-1.21;96.63;151063.16;5038973;28;20455;-77
2023/02/26 01:57:00;;;;;;;3.90;2.73;;;;;;;-1.24;94.60;151055.44;5048532;28;21087;-77
2023/02/26 01:59:26;;;;;;;3.07;2.63;;;;;;;-1.26;94.60;151050.34;5063209;28;20462;-77
2023/02/26 02:01:54;;;;;;;3.77;2.90;;;;;;;-1.30;94.05;151041.34;5065474;28;20542;-77
2023/02/26 02:04:22;;;;;;;3.40;2.63;;;;;;;-1.36;95.30;151024.72;5056462;28;20874;-77
2023/02/26 02:06:50;;;;;;;4.10;2.40;;;;;;;-1.39;96.04;151018.31;5051725;28;21015;-77
2023/02/26 02:09:16;;;;;;;4.50;2.80;;;;;;;-1.43;95.23;151008.03;5042893;28;20481;-77
2023/02/26 02:11:58;;;;;;;4.20;2.97;;;;;;;-1.41;94.76;151011.91;5048243;28;20457;-77
2023/02/26 02:14:31;;;;;;;4.40;3.07;;;;;;;-1.39;95.19;151018.31;5042083;28;20490;-77
2023/02/26 02:17:02;;;;;;;2.70;2.37;;;;;;;-1.42;95.64;151010.63;5057621;28;20510;-77
2023/02/26 02:20:08;;;;;;;4.40;3.13;;;;;;;-1.50;96.74;150990.09;5029730;28;20583;-77
2023/02/26 02:22:58;;;;;;;3.57;2.30;;;;;;;-1.53;96.12;150982.41;5037835;28;20880;-77
2023/02/26 02:26:03;;;;;;;4.73;2.63;;;;;;;-1.59;95.95;150967.03;5029444;28;20505;-77
2023/02/26 02:28:40;;;;;;;4.73;2.07;;;;;;;-1.61;95.73;150961.91;5044553;28;20498;-77
2023/02/26 02:31:12;;;;;;;5.40;2.70;;;;;;;-1.56;95.38;150974.72;5051824;28;20451;-77
2023/02/26 02:33:42;;;;;;;5.47;2.33;;;;;;;-1.58;95.44;150968.31;5046814;28;20533;-79
2023/02/26 02:36:13;;;;;;;3.67;2.70;;;;;;;-1.68;96.11;150942.69;5058717;28;20477;-78
2023/02/26 02:38:46;;;;;;;4.77;2.47;;;;;;;-1.65;94.96;150951.69;5062969;28;20446;-77
2023/02/26 02:41:16;;;;;;;3.00;2.23;;;;;;;-1.73;95.34;150931.19;5020647;28;20539;-77
2023/02/26 02:43:43;;;;;;;4.13;2.73;;;;;;;-1.75;95.75;150926.06;5035915;28;21010;-77
2023/02/26 02:46:14;;;;;;;3.47;2.10;;;;;;;-1.72;95.88;150933.72;5032727;28;20931;-77
2023/02/26 02:48:44;;;;;;;2.57;2.30;;;;;;;-1.68;95.33;150943.97;5044718;28;20454;-77
2023/02/26 02:51:13;;;;;;;3.30;2.50;;;;;;;-1.71;95.48;150936.28;5053155;28;20450;-77
2023/02/26 02:53:45;;;;;;;4.00;2.57;;;;;;;-1.76;97.93;150923.47;5051265;28;20449;-77
2023/02/26 02:56:16;;;;;;;2.77;2.57;;;;;;;-1.77;96.08;150919.66;5048801;28;20907;-77
2023/02/26 02:58:46;;;;;;;5.70;2.87;;;;;;;-1.76;96.13;150923.47;5062609;28;20554;-77
2023/02/26 03:01:18;;;;;;;5.60;2.20;;;;;;;-1.81;97.10;150909.38;5052617;28;20443;-76
2023/02/26 03:03:50;;;;;;;5.27;2.80;;;;;;;-1.81;96.32;150910.69;5030230;28;20449;-77
2023/02/26 03:06:17;;;;;;;6.73;2.73;;;;;;;-1.84;96.72;150902.97;5039021;28;20442;-77
2023/02/26 03:08:45;;;;;;;4.20;2.60;;;;;;;-1.84;100.00;150902.97;5035478;28;21119;-77
2023/02/26 03:11:12;;;;;;;4.83;3.10;;;;;;;-1.87;98.56;150895.28;5052916;28;20450;-77
2023/02/26 03:13:39;;;;;;;2.70;2.30;;;;;;;-1.92;97.97;150882.50;5059475;28;20848;-77
2023/02/26 03:16:25;;;;;;;5.00;2.70;;;;;;;-1.91;97.97;150886.31;5026614;28;20505;-78
2023/02/26 03:19:00;;;;;;;3.97;2.93;;;;;;;-1.91;99.48;150885.06;5041791;28;20435;-78
2023/02/26 03:21:30;;;;;;;3.10;2.50;;;;;;;-1.93;100.00;150879.91;5043284;28;20523;-78
2023/02/26 03:24:02;;;;;;;3.63;2.60;;;;;;;-1.98;99.96;150868.38;5033087;28;20458;-77
2023/02/26 03:26:33;;;;;;;3.77;3.17;;;;;;;-1.96;100.00;150872.25;5033485;28;20453;-78
2023/02/26 03:29:05;;;;;;;4.30;2.43;;;;;;;-2.02;99.76;150856.88;5051214;28;20869;-78
2023/02/26 03:31:38;;;;;;;5.83;2.70;;;;;;;-1.98;100.00;150867.09;5045576;28;20462;-78
2023/02/26 03:34:09;;;;;;;4.37;2.67;;;;;;;-2.00;100.00;150863.28;5057790;28;21025;-78
2023/02/26 03:36:38;;;;;;;4.33;2.80;;;;;;;-2.01;100.00;150860.69;5020413;28;20503;-78
2023/02/26 03:39:22;;;;;;;3.67;2.30;;;;;;;-1.98;99.18;150867.09;5030250;28;20462;-78
2023/02/26 03:41:53;;;;;;;4.47;2.80;;;;;;;-1.94;100.00;150878.66;5033198;28;20440;-78
2023/02/26 03:44:23;;;;;;;3.90;2.57;;;;;;;-1.94;99.36;150877.38;5059978;28;20451;-78
2023/02/26 03:46:54;;;;;;;2.80;2.20;;;;;;;-1.96;98.37;150872.25;5029425;28;20508;-78
2023/02/26 03:49:24;;;;;;;3.83;2.63;;;;;;;-2.00;98.33;150862.00;5046612;28;20458;-77
2023/02/26 03:51:52;;;;;;;3.33;2.30;;;;;;;-2.00;97.78;150862.00;5059688;28;20448;-76
2023/02/26 03:54:39;;;;;;;4.03;2.50;;;;;;;-1.95;96.55;150874.78;5041912;28;20439;-76
2023/02/26 03:57:27;;;;;;;2.70;2.10;;;;;;;-2.06;96.96;150846.59;5045155;28;20470;-77
2023/02/26 04:00:18;;;;;;;3.07;2.40;;;;;;;-2.03;95.88;150854.31;5044339;28;20466;-76
2023/02/26 04:02:51;;;;;;;3.83;2.40;;;;;;;-2.03;95.81;150854.31;5049660;28;20542;-76
2023/02/26 04:05:20;;;;;;;3.13;2.50;;;;;;;-2.03;100.00;150854.31;5061352;28;20461;-77
2023/02/26 04:07:48;;;;;;;6.30;2.70;;;;;;;-2.08;97.72;150841.50;5037835;28;20440;-77
2023/02/26 04:10:16;;;;;;;4.30;3.00;;;;;;;-2.06;96.99;150846.59;5049030;28;20466;-77
2023/02/26 04:12:42;;;;;;;3.60;2.40;;;;;;;-2.04;96.18;150853.00;5044387;28;20461;-77
2023/02/26 04:15:10;;;;;;;3.90;2.33;;;;;;;-2.06;96.83;150847.91;5026216;28;20957;-76
2023/02/26 04:17:37;;;;;;;3.80;2.47;;;;;;;-2.14;97.53;150827.41;5042875;28;20497;-77
2023/02/26 04:20:10;;;;;;;3.30;2.40;;;;;;;-2.11;97.57;150835.09;5033560;28;20454;-77
2023/02/26 04:22:38;;;;;;;3.83;2.47;;;;;;;-2.15;97.30;150824.88;5024998;28;20448;-76
2023/02/26 04:25:05;;;;;;;4.63;3.30;;;;;;;-2.15;97.79;150824.88;5050501;28;20549;-77
2023/02/26 04:27:32;;;;;;;5.43;2.87;;;;;;;-2.21;98.15;150808.19;5041543;28;20524;-76
2023/02/26 04:29:59;;;;;;;4.43;3.00;;;;;;;-2.28;98.53;150791.59;5040769;28;20810;-76
2023/02/26 04:32:25;;;;;;;4.23;2.50;;;;;;;-2.28;99.05;150790.28;5038332;28;20458;-76
2023/02/26 04:34:52;;;;;;;4.90;3.30;;;;;;;-2.30;98.43;150785.19;5048688;28;20875;-76
2023/02/26 04:37:20;;;;;;;4.33;3.00;;;;;;;-2.30;99.52;150786.41;5052546;28;20479;-76
2023/02/26 04:39:47;;;;;;;3.97;3.20;;;;;;;-2.29;99.11;150787.72;5027311;28;20486;-77
2023/02/26 04:42:14;;;;;;;4.13;2.67;;;;;;;-2.29;98.77;150787.72;5047699;28;20483;-76
2023/02/26 04:44:41;;;;;;;2.83;2.47;;;;;;;-2.39;99.30;150763.41;5054272;28;20513;-76
2023/02/26 04:47:08;;;;;;;3.93;2.53;;;;;;;-2.36;99.57;150769.81;5041995;28;20468;-76
2023/02/26 04:49:36;;;;;;;3.10;2.47;;;;;;;-2.36;99.66;150769.81;5062147;28;20450;-76
2023/02/26 04:52:03;;;;;;;3.00;2.70;;;;;;;-2.36;99.36;150771.09;5048996;28;20435;-76
2023/02/26 04:54:31;;;;;;;9.97;2.30;;;;;;;-2.36;100.00;150771.09;5046504;28;20485;-75
2023/02/26 04:56:58;;;;;;;4.87;2.77;;;;;;;-2.39;100.00;150763.41;5062861;28;20800;-76
2023/02/26 04:59:25;;;;;;;4.60;3.37;;;;;;;-2.40;100.00;150759.53;5046286;28;20451;-76
2023/02/26 05:01:52;;;;;;;5.43;2.73;;;;;;;-2.42;100.00;150754.41;5025664;28;20516;-76
2023/02/26 05:04:18;;;;;;;3.67;2.60;;;;;;;-2.36;100.00;150769.81;5028763;28;20796;-77
2023/02/26 05:06:50;;;;;;;3.90;2.80;;;;;;;-2.47;100.00;150742.91;5034630;28;20451;-77
2023/02/26 05:09:16;;;;;;;4.63;2.40;;;;;;;-2.49;100.00;150737.81;5035698;28;20458;-77
2023/02/26 05:11:46;;;;;;;5.00;3.00;;;;;;;-2.48;100.00;150741.63;5032520;28;20465;-76
2023/02/26 05:14:13;;;;;;;5.37;3.50;;;;;;;-2.43;100.00;150753.13;5035190;28;20460;-76
2023/02/26 05:16:41;;;;;;;3.53;2.97;;;;;;;-2.47;100.00;150744.19;5043508;28;20540;-77
2023/02/26 05:19:07;;;;;;;5.17;3.10;;;;;;;-2.45;100.00;150748.03;5030950;28;20529;-77
2023/02/26 05:21:34;;;;;;;7.50;3.07;;;;;;;-2.47;100.00;150742.91;5045002;28;20535;-76
2023/02/26 05:24:01;;;;;;;3.67;2.63;;;;;;;-2.49;100.00;150737.81;5051038;28;20486;-77
2023/02/26 05:26:28;;;;;;;4.80;3.13;;;;;;;-2.51;100.00;150733.94;5033704;28;20471;-76
2023/02/26 05:28:56;;;;;;;3.70;3.03;;;;;;;-2.53;100.00;150727.53;5049396;28;20478;-76
2023/02/26 05:31:23;;;;;;;3.70;3.03;;;;;;;-2.53;100.00;150727.53;5022258;28;20463;-76
2023/02/26 05:33:49;;;;;;;3.93;2.80;;;;;;;-2.53;100.00;150728.81;5026820;28;20488;-77
2023/02/26 05:36:16;;;;;;;4.80;3.10;;;;;;;-2.57;100.00;150718.56;5049622;28;20443;-77
2023/02/26 05:38:43;;;;;;;5.63;2.67;;;;;;;-2.61;100.00;150708.34;5038223;28;20444;-77
2023/02/26 05:41:09;;;;;;;2.90;2.50;;;;;;;-2.62;100.00;150704.53;5030997;28;20525;-77
2023/02/26 05:43:38;;;;;;;5.00;2.70;;;;;;;-2.63;100.00;150703.22;5039217;28;20506;-76
2023/02/26 05:46:06;;;;;;;5.60;3.13;;;;;;;-2.65;100.00;150698.06;5063809;28;20471;-77
2023/02/26 05:48:33;;;;;;;3.03;2.67;;;;;;;-2.62;100.00;150704.53;5056720;28;20541;-77
2023/02/26 05:51:00;;;;;;;3.77;2.63;;;;;;;-2.63;100.00;150701.94;5048845;28;20453;-76
2023/02/26 05:53:26;;;;;;;4.27;2.70;;;;;;;-2.64;100.00;150700.66;5037584;28;20503;-77
2023/02/26 05:55:54;;;;;;;4.83;2.60;;;;;;;-2.64;100.00;150700.66;5051286;28;20448;-77
2023/02/26 05:58:20;;;;;;;3.83;2.60;;;;;;;-2.61;100.00;150707.06;5053177;28;20479;-77
2023/02/26 06:00:47;;;;;;;3.53;2.50;;;;;;;-2.59;100.00;150713.44;5036031;28;20456;-76
2023/02/26 06:03:15;;;;;;;3.53;2.40;;;;;;;-2.69;100.00;150687.84;5048888;28;20457;-76
2023/02/26 06:05:42;;;;;;;2.90;2.60;;;;;;;-2.68;100.00;150690.44;5041400;28;20487;-77
2023/02/26 06:08:27;;;;;;;3.57;3.07;;;;;;;-2.73;100.00;150677.63;5057323;28;20465;-77
2023/02/26 06:10:54;;;;;;;5.17;2.90;;;;;;;-2.75;100.00;150672.47;5040322;28;20441;-77
2023/02/26 06:13:20;;;;;;;4.80;2.60;;;;;;;-2.72;100.00;150678.88;5047419;28;20461;-77
2023/02/26 06:15:49;;;;;;;3.33;2.87;;;;;;;-2.69;100.00;150687.84;5058823;28;21107;-76
2023/02/26 06:18:17;;;;;;;5.53;2.63;;;;;;;-2.73;100.00;150676.34;5061043;28;20451;-77
2023/02/26 06:20:44;;;;;;;4.60;2.40;;;;;;;-2.77;100.00;150667.38;5030546;28;20481;-76
2023/02/26 06:23:10;;;;;;;2.93;2.60;;;;;;;-2.80;100.00;150659.69;5065325;28;20479;-76
2023/02/26 06:25:37;;;;;;;5.10;2.40;;;;;;;-2.84;100.00;150649.47;5031674;28;20545;-76
2023/02/26 06:28:04;;;;;;;7.33;3.10;;;;;;;-2.80;100.00;150659.69;5063014;28;20436;-76
2023/02/26 06:30:30;;;;;;;8.10;3.07;;;;;;;-2.78;100.00;150664.78;5058247;28;20486;-76
2023/02/26 06:32:57;;;;;;;4.23;2.60;;;;;;;-2.78;100.00;150664.78;5043048;28;20851;-76
2023/02/26 06:35:27;;;;;;;2.53;2.33;;;;;;;-2.78;100.00;150664.78;5047189;28;20493;-76
2023/02/26 06:37:53;;;;;;;4.63;3.00;;;;;;;-2.70;100.00;150684.03;5048430;28;20944;-76
2023/02/26 06:40:20;;;;;;;4.10;2.60;;;;;;;-2.68;100.00;150690.44;5045289;28;20549;-77
2023/02/26 06:42:47;;;;;;;5.20;3.13;;;;;;;-2.65;100.00;150698.06;5062102;28;20488;-76
2023/02/26 06:45:13;;;;;;;3.97;2.90;;;;;;;-2.66;100.00;150695.53;5027828;28;20462;-76
2023/02/26 06:47:40;;;;;;;5.00;2.77;;;;;;;-2.64;100.00;150699.38;5060312;28;20471;-77
2023/02/26 06:50:09;;;;;;;4.00;3.00;;;;;;;-2.58;100.00;150714.75;5061369;28;20459;-76
2023/02/26 06:52:37;;;;;;;3.90;2.60;;;;;;;-2.58;100.00;150714.75;5053642;28;20563;-76
2023/02/26 06:55:04;;;;;;;3.07;2.10;;;;;;;-2.57;100.00;150717.31;5028993;28;20902;-77
2023/02/26 06:57:31;;;;;;;2.97;2.40;;;;;;;-2.56;100.00;150719.84;5045190;28;20450;-77
2023/02/26 06:59:58;;;;;;;3.10;2.50;;;;;;;-2.48;100.00;150741.63;5030028;28;20462;-76
2023/02/26 07:02:25;;;;;;;3.93;2.70;;;;;;;-2.55;100.00;150722.44;5042788;28;20554;-76
2023/02/26 07:04:51;;;;;;;3.80;3.00;;;;;;;-2.54;100.00;150724.97;5030657;28;20526;-77
2023/02/26 07:07:18;;;;;;;4.33;3.43;;;;;;;-2.53;100.00;150727.53;5040912;28;20968;-76
2023/02/26 07:09:46;;;;;;;4.43;3.17;;;;;;;-2.52;100.00;150730.13;5027464;28;20508;-76
2023/02/26 07:12:14;;;;;;;3.17;1.93;;;;;;;-2.40;100.00;150760.81;5028908;28;21369;-76
2023/02/26 07:14:44;;;;;;;5.60;3.10;;;;;;;-2.46;100.00;150746.72;5041089;28;20557;-76
2023/02/26 07:17:19;;;;;;;3.50;2.90;;;;;;;-2.46;100.00;150746.72;5044089;28;20501;-75
2023/02/26 07:19:46;;;;;;;3.20;2.47;;;;;;;-2.40;100.00;150759.53;5023953;28;20907;-76
2023/02/26 07:22:12;;;;;;;3.20;2.83;;;;;;;-2.37;100.00;150767.22;5028339;28;20417;-75
2023/02/26 07:24:39;;;;;;;4.13;2.37;;;;;;;-2.25;100.00;150797.97;5040091;28;20474;-76
2023/02/26 07:27:07;;;;;;;3.40;2.50;;;;;;;-2.06;99.55;150846.59;5022877;28;20506;-75
2023/02/26 07:29:34;;;;;;;3.67;3.20;;;;;;;-1.82;99.30;150908.09;5027417;28;20425;-75
2023/02/26 07:32:01;;;;;;;3.53;2.73;;;;;;;-1.62;98.18;150959.38;5025350;28;20471;-76
2023/02/26 07:34:27;;;;;;;8.00;3.03;;;;;;;-1.47;96.74;150996.50;5060134;28;20454;-76
2023/02/26 07:36:54;;;;;;;4.63;2.20;;;;;;;-1.59;96.90;150967.03;5042212;28;20854;-76
2023/02/26 07:39:21;;;;;;;4.40;2.73;;;;;;;-1.56;97.11;150974.72;5040521;28;20459;-76
2023/02/26 07:41:47;;;;;;;3.00;2.50;;;;;;;-1.67;96.89;150946.56;5010615;28;20478;-78
2023/02/26 07:44:16;;;;;;;3.90;2.73;;;;;;;-1.53;97.13;150981.13;5030882;28;20489;-76
2023/02/26 07:46:43;;;;;;;4.57;2.43;;;;;;;-1.36;95.14;151026.00;5049368;28;20498;-76
2023/02/26 07:49:10;;;;;;;4.30;3.03;;;;;;;-1.61;95.63;150961.91;5009217;28;20665;-76
2023/02/26 07:51:37;;;;;;;4.40;2.90;;;;;;;-1.74;95.91;150927.31;5042588;28;20463;-75
2023/02/26 07:54:03;;;;;;;6.57;3.00;;;;;;;-1.94;97.19;150878.66;5042925;28;20476;-75
2023/02/26 07:56:30;;;;;;;5.30;2.90;;;;;;;-1.96;98.40;150873.50;5028276;28;20513;-76
2023/02/26 07:58:57;;;;;;;2.90;2.27;;;;;;;-1.96;99.16;150872.25;5035125;28;20506;-76
2023/02/26 08:01:25;;;;;;;4.43;2.80;;;;;;;-1.89;100.00;150890.19;5035157;28;20447;-76
2023/02/26 08:03:52;;;;;;;3.83;2.20;;;;;;;-1.82;100.00;150908.09;5035285;28;20452;-76
2023/02/26 08:06:18;;;;;;;5.53;2.80;;;;;;;-2.02;100.00;150858.16;5027418;28;20454;-75
2023/02/26 08:08:45;;;;;;;4.00;2.40;;;;;;;-1.97;100.00;150870.97;5040085;28;20463;-76
2023/02/26 08:11:11;;;;;;;3.10;2.70;;;;;;;-1.96;100.00;150872.25;5041448;28;20455;-76
2023/02/26 08:13:38;;;;;;;4.37;2.83;;;;;;;-2.11;100.00;150833.81;5035543;28;20451;-76
2023/02/26 08:16:05;;;;;;;5.00;2.63;;;;;;;-2.13;100.00;150828.69;5029211;28;20458;-77
2023/02/26 08:18:33;;;;;;;4.90;2.93;;;;;;;-1.77;100.00;150919.66;5026177;28;20454;-77
2023/02/26 08:21:00;;;;;;;4.73;3.00;;;;;;;-1.73;100.00;150931.19;5027532;28;20517;-77
2023/02/26 08:23:27;;;;;;;3.83;2.63;;;;;;;-1.82;100.00;150908.09;5031975;28;20448;-76
2023/02/26 08:26:00;;;;;;;5.53;3.00;;;;;;;-1.80;100.00;150913.22;5045105;28;20470;-83
2023/02/26 08:28:27;;;;;;;4.67;2.70;;;;;;;-1.76;100.00;150922.19;5021468;28;20506;-83
2023/02/26 08:30:54;;;;;;;4.03;2.70;;;;;;;-1.82;100.00;150908.09;5047015;28;20535;-83
2023/02/26 08:33:21;;;;;;;5.80;3.53;;;;;;;-1.79;100.00;150914.50;5038836;28;20457;-83
2023/02/26 08:35:50;;;;;;;3.60;2.90;;;;;;;-1.70;100.00;150938.88;5031814;28;20552;-84
2023/02/26 08:38:17;;;;;;;5.73;2.87;;;;;;;-1.71;100.00;150935.00;5042561;28;20445;-84
2023/02/26 08:40:44;;;;;;;3.40;2.93;;;;;;;-1.74;100.00;150928.59;5026868;28;20517;-83
2023/02/26 08:43:11;;;;;;;3.53;3.23;;;;;;;-1.69;100.00;150941.41;5046235;28;20510;-83
2023/02/26 08:45:39;;;;;;;4.80;3.43;;;;;;;-1.63;100.00;150956.78;5028918;28;20456;-83
2023/02/26 08:48:06;;;;;;;4.83;3.00;;;;;;;-1.66;100.00;150949.09;5014609;28;20473;-83
2023/02/26 08:50:32;;;;;;;7.03;3.00;;;;;;;-1.77;100.00;150920.91;5045908;28;20490;-83
2023/02/26 08:53:00;;;;;;;10.47;7.33;;;;;;;-1.74;100.00;150928.59;5037303;28;20453;-83
2023/02/26 08:55:27;;;;;;;5.90;3.67;;;;;;;-1.82;100.00;150908.09;5005833;28;20464;-83
2023/02/26 08:57:54;;;;;;;4.77;3.30;;;;;;;-1.93;100.00;150879.91;5028484;28;20455;-83
2023/02/26 09:00:21;;;;;;;3.50;2.90;;;;;;;-1.93;100.00;150879.91;5030031;28;21052;-83
2023/02/26 09:02:48;;;;;;;4.83;3.80;;;;;;;-1.90;100.00;150887.59;5047223;28;20453;-83
2023/02/26 09:05:16;;;;;;;4.80;2.87;;;;;;;-1.90;100.00;150887.59;5048205;28;20491;-83
2023/02/26 09:07:43;;;;;;;5.70;3.30;;;;;;;-2.02;100.00;150858.16;5046109;28;20470;-83
2023/02/26 09:10:13;;;;;;;6.07;3.70;;;;;;;-2.04;100.00;150853.00;5031957;28;20447;-82
2023/02/26 09:12:39;;;;;;;5.87;3.17;;;;;;;-2.01;100.00;150859.41;5027586;28;20494;-83
2023/02/26 09:15:07;;;;;;;3.80;2.73;;;;;;;-1.88;100.00;150892.75;5042205;28;20509;-83
2023/02/26 09:17:34;;;;;;;5.30;3.17;;;;;;;-1.90;100.00;150888.88;5044600;28;20953;-83
2023/02/26 09:20:02;;;;;;;5.50;3.40;;;;;;;-1.88;100.00;150894.00;5029509;28;20550;-82
2023/02/26 09:22:28;;;;;;;4.87;2.60;;;;;;;-1.88;100.00;150892.75;5042838;28;20804;-83
2023/02/26 09:24:56;;;;;;;5.03;3.60;;;;;;;-1.90;100.00;150887.59;5028446;28;20458;-82
2023/02/26 09:27:24;;;;;;;4.27;2.93;;;;;;;-1.83;100.00;150904.28;5026307;28;20448;-84
2023/02/26 09:29:50;;;;;;;4.03;3.37;;;;;;;-1.77;100.00;150919.66;5047771;28;20521;-83
2023/02/26 09:32:17;;;;;;;7.20;4.17;;;;;;;-1.70;100.00;150938.88;5029815;28;20505;-84
2023/02/26 09:34:44;;;;;;;3.93;3.10;;;;;;;-1.63;100.00;150956.78;5039844;28;20490;-83
2023/02/26 09:37:11;;;;;;;3.70;2.97;;;;;;;-1.70;100.00;150938.88;5047300;28;20451;-83
2023/02/26 09:39:38;;;;;;;3.93;2.53;;;;;;;-1.54;100.00;150979.88;5050559;28;20458;-84
2023/02/26 09:42:11;;;;;;;3.40;2.93;;;;;;;-1.51;100.00;150986.28;5031382;28;20454;-83
2023/02/26 09:44:39;;;;;;;5.20;2.33;;;;;;;-1.54;100.00;150979.88;5048058;28;20897;-84
2023/02/26 09:47:13;;;;;;;3.53;2.70;;;;;;;-1.52;100.00;150985.00;5042001;28;20483;-83
2023/02/26 09:49:49;;;;;;;3.57;2.97;;;;;;;-1.50;100.00;150990.09;5014600;28;20995;-83
2023/02/26 09:52:19;;;;;;;4.27;2.40;;;;;;;-1.51;100.00;150987.53;5047432;28;20876;-84
2023/02/26 09:54:48;;;;;;;4.23;3.10;;;;;;;-1.50;100.00;150988.81;5032074;28;20558;-83
2023/02/26 09:57:22;;;;;;;5.30;2.60;;;;;;;-1.64;100.00;150954.22;5042476;28;20471;-83
2023/02/26 09:59:51;;;;;;;3.93;3.50;;;;;;;-1.61;100.00;150961.91;5026544;28;20585;-83
2023/02/26 10:02:24;;;;;;;2.50;2.20;;;;;;;-1.56;100.00;150974.72;5045737;28;20453;-83
2023/02/26 10:04:57;;;;;;;2.70;2.40;;;;;;;-1.58;100.00;150968.31;5042730;28;20460;-83
2023/02/26 10:07:30;;;;;;;4.70;2.50;;;;;;;-1.50;100.00;150990.09;5032633;28;20458;-83
2023/02/26 10:10:05;;;;;;;3.40;2.43;;;;;;;-1.49;100.00;150991.41;5029049;28;20491;-83
2023/02/26 10:12:35;;;;;;;3.20;2.33;;;;;;;-1.49;100.00;150992.69;5036188;28;20505;-83
2023/02/26 10:15:08;;;;;;;3.10;2.27;;;;;;;-1.48;99.69;150995.22;5012801;28;20477;-83
2023/02/26 10:17:40;;;;;;;3.63;2.87;;;;;;;-1.45;100.00;151002.91;5032058;28;20436;-83
2023/02/26 10:20:11;;;;;;;3.70;2.20;;;;;;;-1.41;100.00;151013.19;5050631;28;20429;-84
2023/02/26 10:22:42;;;;;;;3.13;2.23;;;;;;;-1.53;100.00;150982.41;5022419;28;20474;-84
2023/02/26 10:25:14;;;;;;;2.97;2.67;;;;;;;-1.53;100.00;150982.41;5049732;28;20455;-84
2023/02/26 10:27:48;;;;;;;3.93;2.70;;;;;;;-1.52;99.39;150985.00;5042747;28;20413;-84
2023/02/26 10:30:24;;;;;;;4.73;2.23;;;;;;;-1.54;99.36;150979.88;5049355;28;20470;-83
2023/02/26 10:32:57;;;;;;;5.70;2.20;;;;;;;-1.49;100.00;150991.41;5047240;28;20465;-84
2023/02/26 10:35:25;;;;;;;3.00;2.70;;;;;;;-1.39;100.00;151018.31;5047459;28;20514;-84
2023/02/26 10:37:54;;;;;;;8.43;5.30;;;;;;;-1.37;100.00;151022.13;5048209;28;20451;-83
2023/02/26 10:40:26;;;;;;;7.93;3.20;;;;;;;-1.38;100.00;151020.84;5047615;28;20434;-83
2023/02/26 10:42:58;;;;;;;4.90;2.87;;;;;;;-1.33;98.38;151033.69;5040704;28;20484;-84
2023/02/26 10:45:43;;;;;;;3.87;3.00;;;;;;;-1.39;99.78;151018.31;5023495;28;20467;-84
2023/02/26 10:48:23;;;;;;;3.77;2.63;;;;;;;-1.33;98.35;151033.69;5043349;28;20496;-84
2023/02/26 10:50:52;;;;;;;2.77;2.47;;;;;;;-1.24;98.69;151056.75;5041486;28;20455;-84
2023/02/26 10:53:20;;;;;;;4.50;3.20;;;;;;;-1.09;97.93;151092.66;5040675;28;21988;-84
2023/02/26 10:55:51;;;;;;;5.27;3.97;;;;;;;-1.05;98.67;151104.19;5045657;28;20638;-84
2023/02/26 10:58:20;;;;;;;3.83;3.30;;;;;;;-1.06;97.77;151100.34;5031780;28;20450;-84
2023/02/26 11:00:52;;;;;;;3.40;2.87;;;;;;;-1.13;97.91;151082.38;5042325;28;20483;-84
2023/02/26 11:03:20;;;;;;;4.20;3.40;;;;;;;-0.94;97.20;151131.09;5047287;28;20444;-84
2023/02/26 11:05:47;;;;;;;3.93;2.80;;;;;;;-0.95;97.19;151129.81;5038759;28;20495;-84
2023/02/26 11:08:18;;;;;;;4.80;3.20;;;;;;;-0.92;97.23;151136.22;5042502;28;20571;-84
2023/02/26 11:10:49;;;;;;;4.60;3.07;;;;;;;-0.88;96.94;151147.78;5043043;28;20452;-84
2023/02/26 11:13:15;;;;;;;3.90;2.30;;;;;;;-0.84;95.95;151158.03;5042159;28;20454;-84
2023/02/26 11:15:42;;;;;;;4.63;3.07;;;;;;;-0.81;95.46;151164.44;5027905;28;20459;-83
2023/02/26 11:18:15;;;;;;;5.97;4.10;;;;;;;-0.90;94.95;151141.38;5045335;28;20436;-84
2023/02/26 11:20:44;;;;;;;3.10;2.30;;;;;;;-0.85;94.76;151154.19;5025323;28;20962;-84
2023/02/26 11:23:12;;;;;;;3.77;2.13;;;;;;;-0.85;93.81;151154.19;5030589;28;20547;-84
2023/02/26 11:25:40;;;;;;;3.70;1.90;;;;;;;-0.82;93.52;151163.16;5027045;28;20552;-84
2023/02/26 11:28:22;;;;;;;2.40;1.80;;;;;;;-0.76;94.04;151178.53;5030108;28;20440;-84
2023/02/26 11:30:52;;;;;;;3.63;2.57;;;;;;;-0.81;95.16;151165.72;5034944;28;20456;-84
2023/02/26 11:33:24;;;;;;;3.17;2.20;;;;;;;-0.80;93.38;151167.00;5023024;28;20452;-84